createdAt,value
2023-02-11T00:02:02.451Z,103037.25
2023-02-11T00:05:07.782Z,103040.69
2023-02-11T00:08:17.066Z,103039.09
2023-02-11T00:11:23.248Z,103042.47
2023-02-11T00:14:27.419Z,103050.22
2023-02-11T00:17:31.219Z,103047.66
2023-02-11T00:20:34.912Z,103045.97
2023-02-11T00:23:40.438Z,103018.28
2023-02-11T00:26:45.029Z,103024.34
2023-02-11T00:29:48.832Z,103020.09
2023-02-11T00:32:52.582Z,103032.19
2023-02-11T00:35:56.357Z,103026.16
2023-02-11T00:39:01.990Z,103021.00
2023-02-11T00:42:05.987Z,103007.94
2023-02-11T00:45:10.890Z,102995.84
2023-02-11T00:48:14.599Z,102981.13
2023-02-11T00:51:18.689Z,102982.97
2023-02-11T00:54:23.862Z,102979.50
2023-02-11T00:57:27.568Z,102975.25
2023-02-11T01:00:31.292Z,102976.16
2023-02-11T01:03:35.236Z,102969.16
2023-02-11T01:06:39.008Z,102982.16
2023-02-11T01:09:44.067Z,102985.00
2023-02-11T01:12:48.036Z,102995.41
2023-02-11T01:15:51.943Z,103000.44
2023-02-11T01:18:55.999Z,102991.78
2023-02-11T01:21:59.791Z,102996.94
2023-02-11T01:25:05.382Z,102994.59
2023-02-11T01:28:14.015Z,102987.63
2023-02-11T01:31:17.905Z,102990.97
2023-02-11T01:34:21.674Z,102987.44
2023-02-11T01:37:25.385Z,102988.31
2023-02-11T01:40:30.858Z,102988.41
2023-02-11T01:43:39.086Z,102983.16
2023-02-11T01:46:42.884Z,102988.38
2023-02-11T01:49:50.884Z,102992.69
2023-02-11T01:53:14.789Z,102983.22
2023-02-11T01:56:39.730Z,102977.09
2023-02-11T01:59:53.142Z,102975.41
2023-02-11T02:03:06.236Z,102978.84
2023-02-11T02:06:20.912Z,102967.59
2023-02-11T02:09:30.306Z,102968.56
2023-02-11T02:12:35.407Z,102956.53
2023-02-11T02:15:42.518Z,102949.63
2023-02-11T02:18:58.059Z,102936.66
2023-02-11T02:22:46.764Z,102935.75
2023-02-11T02:26:38.840Z,102933.94
2023-02-11T02:30:15.891Z,102933.06
2023-02-11T02:33:36.278Z,102930.56
2023-02-11T02:36:48.567Z,102930.63
2023-02-11T02:39:52.493Z,102930.53
2023-02-11T02:42:59.027Z,102930.69
2023-02-11T02:46:18.322Z,102928.06
2023-02-11T02:49:23.454Z,102919.34
2023-02-11T02:52:43.471Z,102913.25
2023-02-11T02:56:03.683Z,102913.28
2023-02-11T02:59:38.308Z,102902.06
2023-02-11T03:02:59.894Z,102905.47
2023-02-11T03:06:13.623Z,102909.97
2023-02-11T03:09:29.326Z,102909.94
2023-02-11T03:12:36.202Z,102901.34
2023-02-11T03:15:45.319Z,102896.97
2023-02-11T03:18:58.246Z,102892.56
2023-02-11T03:22:08.859Z,102898.63
2023-02-11T03:25:12.598Z,102892.50
2023-02-11T03:28:28.288Z,102894.31
2023-02-11T03:31:42.992Z,102890.75
2023-02-11T03:34:56.079Z,102899.47
2023-02-11T03:38:07.113Z,102896.09
2023-02-11T03:41:12.635Z,102892.69
2023-02-11T03:44:18.589Z,102891.78
2023-02-11T03:47:29.199Z,102884.03
2023-02-11T03:50:37.523Z,102884.03
2023-02-11T03:53:47.676Z,102886.69
2023-02-11T03:56:57.779Z,102880.56
2023-02-11T04:00:01.962Z,102884.03
2023-02-11T04:03:06.209Z,102891.94
2023-02-11T04:06:10.324Z,102894.56
2023-02-11T04:09:15.811Z,102903.19
2023-02-11T04:12:19.596Z,102900.63
2023-02-11T04:15:23.378Z,102898.13
2023-02-11T04:18:27.066Z,102895.53
2023-02-11T04:21:30.679Z,102898.06
2023-02-11T04:24:36.660Z,102905.03
2023-02-11T04:27:40.433Z,102898.03
2023-02-11T04:30:44.190Z,102893.78
2023-02-11T04:33:47.869Z,102887.72
2023-02-11T04:36:51.724Z,102892.06
2023-02-11T04:39:56.863Z,102893.78
2023-02-11T04:43:00.605Z,102899.03
2023-02-11T04:46:04.339Z,102898.19
2023-02-11T04:49:08.114Z,102899.03
2023-02-11T04:52:11.851Z,102894.75
2023-02-11T04:55:17.005Z,102896.47
2023-02-11T04:58:21.411Z,102888.63
2023-02-11T05:01:25.252Z,102891.28
2023-02-11T05:04:29.055Z,102886.97
2023-02-11T05:07:33.101Z,102882.66
2023-02-11T05:10:38.656Z,102873.94
2023-02-11T05:13:42.348Z,102864.41
2023-02-11T05:16:46.148Z,102865.41
2023-02-11T05:19:49.902Z,102870.59
2023-02-11T05:22:53.598Z,102871.44
2023-02-11T05:25:58.766Z,102872.34
2023-02-11T05:29:02.434Z,102886.22
2023-02-11T05:32:07.460Z,102877.56
2023-02-11T05:35:11.178Z,102895.03
2023-02-11T05:38:14.974Z,102897.63
2023-02-11T05:41:20.099Z,102888.94
2023-02-11T05:44:23.946Z,102894.25
2023-02-11T05:47:27.739Z,102893.28
2023-02-11T05:50:31.505Z,102885.47
2023-02-11T05:53:35.511Z,102888.88
2023-02-11T05:56:43.111Z,102893.25
2023-02-11T05:59:48.148Z,102889.72
2023-02-11T06:02:52.139Z,102897.63
2023-02-11T06:05:55.836Z,102897.63
2023-02-11T06:08:59.733Z,102894.06
2023-02-11T06:12:05.222Z,102893.25
2023-02-11T06:15:09.858Z,102892.31
2023-02-11T06:18:13.566Z,102890.63
2023-02-11T06:21:17.223Z,102894.09
2023-02-11T06:24:44.337Z,102896.66
2023-02-11T06:27:46.034Z,102893.13
2023-02-11T06:30:49.786Z,102887.03
2023-02-11T06:33:55.039Z,102893.13
2023-02-11T06:36:58.701Z,102891.44
2023-02-11T06:40:02.446Z,102894.97
2023-02-11T06:43:07.572Z,102906.25
2023-02-11T06:46:11.583Z,102896.66
2023-02-11T06:49:15.618Z,102900.09
2023-02-11T06:52:19.411Z,102892.28
2023-02-11T06:55:23.190Z,102891.38
2023-02-11T06:58:28.349Z,102887.06
2023-02-11T07:01:32.233Z,102895.91
2023-02-11T07:04:35.974Z,102894.13
2023-02-11T07:07:39.784Z,102889.88
2023-02-11T07:10:43.563Z,102886.41
2023-02-11T07:13:49.356Z,102896.88
2023-02-11T07:16:53.237Z,102890.78
2023-02-11T07:19:56.920Z,102905.56
2023-02-11T07:23:01.071Z,102901.41
2023-02-11T07:26:06.211Z,102907.44
2023-02-11T07:29:11.370Z,102908.38
2023-02-11T07:32:15.431Z,102924.03
2023-02-11T07:35:19.295Z,102926.63
2023-02-11T07:38:25.742Z,102941.44
2023-02-11T07:41:29.948Z,102951.91
2023-02-11T07:44:38.098Z,102946.69
2023-02-11T07:47:42.832Z,102935.47
2023-02-11T07:50:46.597Z,102947.72
2023-02-11T07:53:51.115Z,102952.03
2023-02-11T07:57:00.288Z,102945.16
2023-02-11T08:00:07.157Z,102943.41
2023-02-11T08:03:10.889Z,102942.53
2023-02-11T08:06:17.634Z,102951.28
2023-02-11T08:09:28.620Z,102947.88
2023-02-11T08:12:32.908Z,102946.16
2023-02-11T08:15:52.895Z,102967.91
2023-02-11T08:19:00.186Z,102970.50
2023-02-11T08:22:03.903Z,102972.22
2023-02-11T08:25:08.382Z,102981.78
2023-02-11T08:28:12.092Z,102987.88
2023-02-11T08:31:20.757Z,102995.75
2023-02-11T08:34:24.497Z,102994.00
2023-02-11T08:37:28.206Z,102997.53
2023-02-11T08:40:32.010Z,103009.66
2023-02-11T08:43:35.795Z,103001.88
2023-02-11T08:46:40.914Z,103011.56
2023-02-11T08:49:44.544Z,103008.06
2023-02-11T08:52:48.429Z,103006.31
2023-02-11T08:55:52.593Z,103009.81
2023-02-11T08:58:56.617Z,103017.78
2023-02-11T09:02:01.813Z,103013.44
2023-02-11T09:05:05.914Z,103014.22
2023-02-11T09:08:09.603Z,103010.81
2023-02-11T09:11:14.629Z,103018.53
2023-02-11T09:14:23.064Z,103028.19
2023-02-11T09:17:28.210Z,103029.00
2023-02-11T09:20:32.394Z,103034.31
2023-02-11T09:23:37.039Z,103042.06
2023-02-11T09:26:43.696Z,103042.16
2023-02-11T09:29:47.544Z,103040.47
2023-02-11T09:32:52.671Z,103052.63
2023-02-11T09:35:56.381Z,103055.44
2023-02-11T09:39:02.940Z,103057.09
2023-02-11T09:42:39.342Z,103046.78
2023-02-11T09:45:43.197Z,103045.16
2023-02-11T09:48:52.233Z,103059.91
2023-02-11T09:52:06.346Z,103068.59
2023-02-11T09:55:23.053Z,103066.78
2023-02-11T09:58:30.950Z,103072.00
2023-02-11T10:01:42.348Z,103055.53
2023-02-11T10:05:17.617Z,103072.94
2023-02-11T10:08:40.634Z,103069.38
2023-02-11T10:11:58.228Z,103073.75
2023-02-11T10:15:27.184Z,103075.44
2023-02-11T10:19:08.755Z,103068.59
2023-02-11T10:22:21.476Z,103069.44
2023-02-11T10:25:28.884Z,103059.00
2023-02-11T10:28:35.287Z,103071.25
2023-02-11T10:31:44.733Z,103087.88
2023-02-11T10:34:49.063Z,103094.78
2023-02-11T10:37:54.727Z,103100.06
2023-02-11T10:40:58.397Z,103101.81
2023-02-11T10:44:02.855Z,103090.31
2023-02-11T10:47:17.036Z,103083.41
2023-02-11T10:50:25.931Z,103093.94
2023-02-11T10:53:31.081Z,103093.97
2023-02-11T10:56:38.941Z,103106.34
2023-02-11T10:59:43.464Z,103108.16
2023-02-11T11:02:55.650Z,103110.84
2023-02-11T11:06:03.303Z,103107.22
2023-02-11T11:09:17.886Z,103100.19
2023-02-11T11:12:42.071Z,103100.25
2023-02-11T11:15:46.094Z,103105.41
2023-02-11T11:18:52.426Z,103110.66
2023-02-11T11:21:58.644Z,103115.91
2023-02-11T11:25:03.957Z,103111.56
2023-02-11T11:28:10.649Z,103123.75
2023-02-11T11:31:19.401Z,103128.94
2023-02-11T11:34:32.389Z,103133.28
2023-02-11T11:37:38.333Z,103127.91
2023-02-11T11:40:43.374Z,103126.16
2023-02-11T11:44:01.856Z,103121.78
2023-02-11T11:47:30.630Z,103125.31
2023-02-11T11:50:41.507Z,103126.25
2023-02-11T11:53:54.733Z,103124.53
2023-02-11T11:57:20.507Z,103129.84
2023-02-11T12:00:36.432Z,103131.56
2023-02-11T12:04:28.617Z,103111.59
2023-02-11T12:07:51.434Z,103098.72
2023-02-11T12:11:10.766Z,103102.16
2023-02-11T12:14:29.999Z,103102.22
2023-02-11T12:17:53.520Z,103103.22
2023-02-11T12:21:27.691Z,103105.09
2023-02-11T12:24:57.786Z,103099.91
2023-02-11T12:28:23.092Z,103105.25
2023-02-11T12:31:49.155Z,103096.59
2023-02-11T12:35:18.039Z,103098.41
2023-02-11T12:38:40.090Z,103097.63
2023-02-11T12:42:34.450Z,103102.84
2023-02-11T12:46:11.120Z,103095.06
2023-02-11T12:49:46.148Z,103081.97
2023-02-11T12:53:23.826Z,103089.94
2023-02-11T12:56:39.735Z,103092.47
2023-02-11T12:59:56.566Z,103102.19
2023-02-11T13:03:08.395Z,103097.75
2023-02-11T13:06:20.582Z,103096.06
2023-02-11T13:09:31.850Z,103096.97
2023-02-11T13:12:55.324Z,103105.72
2023-02-11T13:16:07.809Z,103113.50
2023-02-11T13:19:26.655Z,103122.25
2023-02-11T13:22:39.808Z,103123.88
2023-02-11T13:25:52.027Z,103124.84
2023-02-11T13:29:07.283Z,103118.56
2023-02-11T13:32:14.993Z,103124.66
2023-02-11T13:35:30.818Z,103124.66
2023-02-11T13:38:37.592Z,103129.91
2023-02-11T13:41:45.145Z,103127.25
2023-02-11T13:44:48.902Z,103129.09
2023-02-11T13:47:59.657Z,103134.28
2023-02-11T13:51:07.690Z,103136.03
2023-02-11T13:54:27.649Z,103135.03
2023-02-11T13:57:39.145Z,103136.84
2023-02-11T14:00:51.316Z,103136.84
2023-02-11T14:04:39.784Z,103132.50
2023-02-11T14:08:40.544Z,103145.56
2023-02-11T14:11:50.320Z,103145.72
2023-02-11T14:15:36.898Z,103149.97
2023-02-11T14:19:01.016Z,103137.66
2023-02-11T14:22:07.175Z,103143.69
2023-02-11T14:25:23.357Z,103152.47
2023-02-11T14:28:34.418Z,103161.25
2023-02-11T14:31:49.014Z,103160.25
2023-02-11T14:35:06.693Z,103161.09
2023-02-11T14:38:26.071Z,103162.00
2023-02-11T14:41:36.694Z,103148.13
2023-02-11T14:44:42.851Z,103159.47
2023-02-11T14:47:54.999Z,103160.25
2023-02-11T14:51:05.092Z,103168.09
2023-02-11T14:54:17.227Z,103174.19
2023-02-11T14:57:22.009Z,103168.88
2023-02-11T15:00:27.421Z,103167.19
2023-02-11T15:03:37.867Z,103175.00
2023-02-11T15:06:49.680Z,103175.84
2023-02-11T15:09:55.701Z,103173.25
2023-02-11T15:13:02.043Z,103184.47
2023-02-11T15:16:11.269Z,103186.28
2023-02-11T15:19:25.872Z,103183.66
2023-02-11T15:22:36.519Z,103173.19
2023-02-11T15:25:46.404Z,103179.28
2023-02-11T15:28:52.784Z,103184.47
2023-02-11T15:32:14.856Z,103184.47
2023-02-11T15:35:20.125Z,103193.16
2023-02-11T15:38:25.191Z,103193.16
2023-02-11T15:41:38.807Z,103194.91
2023-02-11T15:44:42.577Z,103190.47
2023-02-11T15:47:54.073Z,103194.75
2023-02-11T15:51:02.760Z,103207.88
2023-02-11T15:54:17.927Z,103205.19
2023-02-11T15:57:23.984Z,103210.53
2023-02-11T16:00:36.785Z,103211.28
2023-02-11T16:03:44.336Z,103214.75
2023-02-11T16:06:48.997Z,103213.91
2023-02-11T16:09:59.827Z,103219.09
2023-02-11T16:13:21.107Z,103215.63
2023-02-11T16:16:28.817Z,103222.53
2023-02-11T16:19:36.131Z,103220.78
2023-02-11T16:22:40.044Z,103228.69
2023-02-11T16:25:44.214Z,103217.31
2023-02-11T16:28:48.320Z,103212.03
2023-02-11T16:31:54.542Z,103220.75
2023-02-11T16:35:01.915Z,103221.56
2023-02-11T16:38:05.708Z,103234.69
2023-02-11T16:41:11.866Z,103240.81
2023-02-11T16:44:15.727Z,103233.75
2023-02-11T16:47:27.890Z,103241.44
2023-02-11T16:50:33.646Z,103231.81
2023-02-11T16:53:37.391Z,103240.50
2023-02-11T16:56:41.680Z,103230.91
2023-02-11T16:59:46.136Z,103237.03
2023-02-11T17:02:50.027Z,103241.34
2023-02-11T17:05:56.057Z,103248.34
2023-02-11T17:08:59.944Z,103251.75
2023-02-11T17:12:04.603Z,103254.34
2023-02-11T17:15:23.737Z,103261.28
2023-02-11T17:18:28.584Z,103271.75
2023-02-11T17:21:36.715Z,103276.16
2023-02-11T17:24:44.448Z,103281.34
2023-02-11T17:27:52.887Z,103276.13
2023-02-11T17:30:56.794Z,103277.94
2023-02-11T17:34:03.232Z,103283.16
2023-02-11T17:37:09.416Z,103286.66
2023-02-11T17:40:15.900Z,103291.09
2023-02-11T17:43:19.848Z,103297.22
2023-02-11T17:46:28.620Z,103295.50
2023-02-11T17:49:33.044Z,103294.66
2023-02-11T17:52:38.985Z,103298.19
2023-02-11T17:55:43.019Z,103298.19
2023-02-11T17:58:47.403Z,103306.03
2023-02-11T18:01:52.399Z,103310.38
2023-02-11T18:04:57.909Z,103299.03
2023-02-11T18:08:04.454Z,103327.75
2023-02-11T18:11:12.653Z,103337.25
2023-02-11T18:14:16.882Z,103341.47
2023-02-11T18:17:21.258Z,103344.84
2023-02-11T18:20:25.116Z,103356.97
2023-02-11T18:23:31.214Z,103365.50
2023-02-11T18:26:35.524Z,103356.66
2023-02-11T18:29:39.670Z,103371.34
2023-02-11T18:32:44.120Z,103377.38
2023-02-11T18:35:49.505Z,103377.41
2023-02-11T18:38:58.390Z,103379.06
2023-02-11T18:42:03.340Z,103383.31
2023-02-11T18:45:11.742Z,103378.00
2023-02-11T18:48:16.713Z,103386.63
2023-02-11T18:51:21.804Z,103385.84
2023-02-11T18:54:27.216Z,103384.84
2023-02-11T18:57:30.912Z,103393.50
2023-02-11T19:00:36.711Z,103396.94
2023-02-11T19:03:40.857Z,103402.16
2023-02-11T19:07:03.813Z,103393.41
2023-02-11T19:10:13.379Z,103399.53
2023-02-11T19:13:17.164Z,103403.03
2023-02-11T19:16:21.155Z,103390.72
2023-02-11T19:19:29.292Z,103397.72
2023-02-11T19:22:33.465Z,103405.53
2023-02-11T19:25:46.693Z,103397.63
2023-02-11T19:28:50.852Z,103404.53
2023-02-11T19:31:55.578Z,103415.81
2023-02-11T19:34:59.861Z,103418.44
2023-02-11T19:38:03.994Z,103417.53
2023-02-11T19:41:10.297Z,103413.28
2023-02-11T19:44:16.735Z,103415.75
2023-02-11T19:47:27.202Z,103415.75
2023-02-11T19:50:31.099Z,103412.22
2023-02-11T19:53:34.935Z,103417.44
2023-02-11T19:56:40.408Z,103419.13
2023-02-11T19:59:46.044Z,103426.88
2023-02-11T20:02:50.024Z,103430.34
2023-02-11T20:05:54.574Z,103434.78
2023-02-11T20:09:01.366Z,103429.50
2023-02-11T20:12:07.717Z,103424.34
2023-02-11T20:15:11.950Z,103422.56
2023-02-11T20:18:16.159Z,103432.09
2023-02-11T20:21:23.548Z,103431.25
2023-02-11T20:24:28.173Z,103431.31
2023-02-11T20:27:33.496Z,103437.34
2023-02-11T20:30:38.212Z,103435.59
2023-02-11T20:33:44.532Z,103435.56
2023-02-11T20:36:52.140Z,103432.97
2023-02-11T20:39:56.240Z,103429.50
2023-02-11T20:43:01.436Z,103438.09
2023-02-11T20:46:07.279Z,103434.63
2023-02-11T20:49:13.728Z,103436.31
2023-02-11T20:52:17.499Z,103436.31
2023-02-11T20:55:21.432Z,103445.91
2023-02-11T20:58:26.556Z,103452.91
2023-02-11T21:01:33.906Z,103450.25
2023-02-11T21:04:39.157Z,103447.66
2023-02-11T21:07:42.890Z,103458.94
2023-02-11T21:10:46.675Z,103449.28
2023-02-11T21:13:52.171Z,103461.47
2023-02-11T21:16:56.313Z,103461.47
2023-02-11T21:20:00.018Z,103471.03
2023-02-11T21:23:03.709Z,103469.31
2023-02-11T21:26:08.525Z,103469.31
2023-02-11T21:29:13.633Z,103481.47
2023-02-11T21:32:18.338Z,103486.75
2023-02-11T21:35:22.067Z,103485.03
2023-02-11T21:38:27.251Z,103482.34
2023-02-11T21:41:31.406Z,103491.91
2023-02-11T21:44:36.855Z,103496.19
2023-02-11T21:47:40.613Z,103504.84
2023-02-11T21:50:47.755Z,103505.75
2023-02-11T21:53:55.944Z,103505.72
2023-02-11T21:57:03.100Z,103517.00
2023-02-11T22:00:11.020Z,103517.88
2023-02-11T22:03:15.001Z,103515.22
2023-02-11T22:06:22.375Z,103523.94
2023-02-11T22:09:26.152Z,103519.59
2023-02-11T22:12:29.971Z,103528.25
2023-02-11T22:15:42.874Z,103534.44
2023-02-11T22:18:46.595Z,103537.91
2023-02-11T22:21:50.399Z,103535.25
2023-02-11T22:24:54.191Z,103537.88
2023-02-11T22:27:57.906Z,103532.69
2023-02-11T22:31:03.139Z,103533.53
2023-02-11T22:34:08.475Z,103541.34
2023-02-11T22:37:12.501Z,103545.63
2023-02-11T22:40:16.604Z,103544.72
2023-02-11T22:43:20.264Z,103555.16
2023-02-11T22:46:25.771Z,103566.44
2023-02-11T22:49:32.506Z,103578.63
2023-02-11T22:52:37.272Z,103575.13
2023-02-11T22:55:41.809Z,103582.97
2023-02-11T22:58:45.853Z,103587.31
2023-02-11T23:01:51.418Z,103586.44
2023-02-11T23:04:55.272Z,103580.31
2023-02-11T23:07:59.661Z,103579.41
2023-02-11T23:11:09.046Z,103590.69
2023-02-11T23:14:13.133Z,103588.88
2023-02-11T23:17:19.609Z,103590.81
2023-02-11T23:20:23.432Z,103601.25
2023-02-11T23:23:27.198Z,103602.00
2023-02-11T23:26:31.496Z,103601.94
2023-02-11T23:29:35.187Z,103609.72
2023-02-11T23:32:41.313Z,103613.16
2023-02-11T23:35:44.982Z,103607.06
2023-02-11T23:38:49.903Z,103601.88
2023-02-11T23:41:58.922Z,103604.50
2023-02-11T23:45:02.776Z,103607.91
2023-02-11T23:48:07.833Z,103608.75
2023-02-11T23:51:11.604Z,103604.44
2023-02-11T23:54:16.569Z,103611.44
2023-02-11T23:57:20.602Z,103615.72
